sensor_id;sensor_type;location;lat;lon;timestamp;pressure;altitude;pressure_sealevel;temperature;humidity
13312;BME280;34033;48.672;9.376;2023-07-31T00:01:42;98593.13;;;18.01;67.18
13312;BME280;34033;48.672;9.376;2023-07-31T00:04:07;98600.72;;;18.04;67.51
13312;BME280;34033;48.672;9.376;2023-07-31T00:06:32;98598.38;;;18.02;67.66
13312;BME280;34033;48.672;9.376;2023-07-31T00:08:58;98604.53;;;17.97;67.73
13312;BME280;34033;48.672;9.376;2023-07-31T00:11:23;98604.59;;;17.93;67.81
13312;BME280;34033;48.672;9.376;2023-07-31T00:13:49;98595.31;;;17.93;68.09
13312;BME280;34033;48.672;9.376;2023-07-31T00:16:14;98595.31;;;17.93;68.20
13312;BME280;34033;48.672;9.376;2023-07-31T00:18:40;98603.78;;;17.93;68.40
13312;BME280;34033;48.672;9.376;2023-07-31T00:21:06;98598.59;;;17.91;68.17
13312;BME280;34033;48.672;9.376;2023-07-31T00:23:31;98600.97;;;17.93;68.14
13312;BME280;34033;48.672;9.376;2023-07-31T00:25:56;98606.63;;;17.93;68.11
13312;BME280;34033;48.672;9.376;2023-07-31T00:28:22;98611.94;;;17.91;68.14
13312;BME280;34033;48.672;9.376;2023-07-31T00:30:47;98609.25;;;17.84;68.41
13312;BME280;34033;48.672;9.376;2023-07-31T00:33:12;98611.84;;;17.75;69.19
13312;BME280;34033;48.672;9.376;2023-07-31T00:35:38;98604.22;;;17.72;69.26
13312;BME280;34033;48.672;9.376;2023-07-31T00:38:03;98615.91;;;17.74;69.38
13312;BME280;34033;48.672;9.376;2023-07-31T00:40:28;98605.47;;;17.71;69.47
13312;BME280;34033;48.672;9.376;2023-07-31T00:42:53;98609.50;;;17.70;69.05
13312;BME280;34033;48.672;9.376;2023-07-31T00:45:19;98604.31;;;17.68;68.86
13312;BME280;34033;48.672;9.376;2023-07-31T00:47:45;98599.88;;;17.67;68.90
13312;BME280;34033;48.672;9.376;2023-07-31T00:50:10;98592.63;;;17.66;68.79
13312;BME280;34033;48.672;9.376;2023-07-31T00:52:36;98598.72;;;17.65;68.67
13312;BME280;34033;48.672;9.376;2023-07-31T00:55:03;98600.69;;;17.68;68.59
13312;BME280;34033;48.672;9.376;2023-07-31T00:57:28;98593.44;;;17.67;68.46
13312;BME280;34033;48.672;9.376;2023-07-31T00:59:54;98593.06;;;17.65;68.33
13312;BME280;34033;48.672;9.376;2023-07-31T01:02:19;98587.47;;;17.61;67.86
13312;BME280;34033;48.672;9.376;2023-07-31T01:04:44;98581.06;;;17.57;67.99
13312;BME280;34033;48.672;9.376;2023-07-31T01:09:49;98585.22;;;17.52;68.21
13312;BME280;34033;48.672;9.376;2023-07-31T01:12:19;98594.53;;;17.49;68.22
13312;BME280;34033;48.672;9.376;2023-07-31T01:15:11;98574.88;;;17.42;68.94
13312;BME280;34033;48.672;9.376;2023-07-31T01:17:41;98579.91;;;17.35;69.16
13312;BME280;34033;48.672;9.376;2023-07-31T01:26:03;98568.59;;;17.35;69.69
13312;BME280;34033;48.672;9.376;2023-07-31T01:28:56;98571.13;;;17.49;70.22
13312;BME280;34033;48.672;9.376;2023-07-31T01:31:29;98557.81;;;17.49;69.60
13312;BME280;34033;48.672;9.376;2023-07-31T01:33:58;98558.19;;;17.51;69.69
13312;BME280;34033;48.672;9.376;2023-07-31T01:36:25;98553.53;;;17.41;70.05
13312;BME280;34033;48.672;9.376;2023-07-31T01:38:50;98563.38;;;17.33;70.63
13312;BME280;34033;48.672;9.376;2023-07-31T01:41:19;98560.38;;;17.21;70.61
13312;BME280;34033;48.672;9.376;2023-07-31T01:43:47;98560.53;;;17.14;71.03
13312;BME280;34033;48.672;9.376;2023-07-31T01:46:13;98560.44;;;17.17;71.40
13312;BME280;34033;48.672;9.376;2023-07-31T01:48:38;98549.16;;;17.17;71.32
13312;BME280;34033;48.672;9.376;2023-07-31T01:51:03;98551.63;;;17.35;71.63
13312;BME280;34033;48.672;9.376;2023-07-31T01:53:31;98548.72;;;17.38;70.48
13312;BME280;34033;48.672;9.376;2023-07-31T01:55:56;98555.06;;;17.46;70.43
13312;BME280;34033;48.672;9.376;2023-07-31T01:58:22;98549.25;;;17.33;70.88
13312;BME280;34033;48.672;9.376;2023-07-31T02:00:47;98551.75;;;17.28;70.90
13312;BME280;34033;48.672;9.376;2023-07-31T02:03:12;98556.19;;;17.29;71.17
13312;BME280;34033;48.672;9.376;2023-07-31T02:05:48;98554.59;;;17.28;72.02
13312;BME280;34033;48.672;9.376;2023-07-31T02:08:14;98556.56;;;17.31;71.67
13312;BME280;34033;48.672;9.376;2023-07-31T02:10:40;98559.94;;;17.22;71.61
13312;BME280;34033;48.672;9.376;2023-07-31T02:13:05;98556.31;;;17.22;72.26
13312;BME280;34033;48.672;9.376;2023-07-31T02:15:31;98555.47;;;17.25;72.34
13312;BME280;34033;48.672;9.376;2023-07-31T02:17:57;98555.97;;;17.20;72.14
13312;BME280;34033;48.672;9.376;2023-07-31T02:20:22;98551.59;;;17.15;72.18
13312;BME280;34033;48.672;9.376;2023-07-31T02:22:47;98543.91;;;17.16;72.64
13312;BME280;34033;48.672;9.376;2023-07-31T02:25:13;98545.22;;;17.11;72.88
13312;BME280;34033;48.672;9.376;2023-07-31T02:27:38;98540.16;;;17.02;72.50
13312;BME280;34033;48.672;9.376;2023-07-31T02:30:04;98530.63;;;16.93;73.13
13312;BME280;34033;48.672;9.376;2023-07-31T02:32:29;98534.00;;;16.84;73.10
13312;BME280;34033;48.672;9.376;2023-07-31T02:34:54;98519.97;;;16.81;73.31
13312;BME280;34033;48.672;9.376;2023-07-31T02:37:20;98530.50;;;16.77;73.39
13312;BME280;34033;48.672;9.376;2023-07-31T02:39:45;98522.53;;;16.72;73.19
13312;BME280;34033;48.672;9.376;2023-07-31T02:42:10;98521.81;;;16.67;73.58
13312;BME280;34033;48.672;9.376;2023-07-31T02:44:36;98521.06;;;16.63;73.24
13312;BME280;34033;48.672;9.376;2023-07-31T02:47:01;98527.56;;;16.60;73.33
13312;BME280;34033;48.672;9.376;2023-07-31T02:49:28;98522.75;;;16.57;73.70
13312;BME280;34033;48.672;9.376;2023-07-31T02:51:53;98522.38;;;16.59;74.38
13312;BME280;34033;48.672;9.376;2023-07-31T02:54:18;98523.91;;;16.63;74.90
13312;BME280;34033;48.672;9.376;2023-07-31T02:56:46;98534.56;;;16.76;73.53
13312;BME280;34033;48.672;9.376;2023-07-31T02:59:12;98526.16;;;16.72;73.74
13312;BME280;34033;48.672;9.376;2023-07-31T03:01:37;98529.88;;;16.65;73.78
13312;BME280;34033;48.672;9.376;2023-07-31T03:04:03;98525.13;;;16.62;73.55
13312;BME280;34033;48.672;9.376;2023-07-31T03:06:29;98513.91;;;16.59;73.51
13312;BME280;34033;48.672;9.376;2023-07-31T03:08:54;98516.38;;;16.53;73.81
13312;BME280;34033;48.672;9.376;2023-07-31T03:11:19;98511.06;;;16.59;75.10
13312;BME280;34033;48.672;9.376;2023-07-31T03:13:44;98506.63;;;16.58;73.37
13312;BME280;34033;48.672;9.376;2023-07-31T03:16:10;98498.75;;;16.46;73.33
13312;BME280;34033;48.672;9.376;2023-07-31T03:18:35;98497.56;;;16.43;73.15
13312;BME280;34033;48.672;9.376;2023-07-31T03:21:00;98500.88;;;16.38;73.66
13312;BME280;34033;48.672;9.376;2023-07-31T03:23:26;98501.38;;;16.33;74.08
13312;BME280;34033;48.672;9.376;2023-07-31T03:25:58;98501.25;;;16.40;74.46
13312;BME280;34033;48.672;9.376;2023-07-31T03:28:24;98502.38;;;16.46;74.51
13312;BME280;34033;48.672;9.376;2023-07-31T03:30:49;98502.13;;;16.37;74.32
13312;BME280;34033;48.672;9.376;2023-07-31T03:33:14;98511.81;;;16.36;74.24
13312;BME280;34033;48.672;9.376;2023-07-31T03:35:40;98514.25;;;16.34;73.72
13312;BME280;34033;48.672;9.376;2023-07-31T03:38:05;98509.03;;;16.33;74.05
13312;BME280;34033;48.672;9.376;2023-07-31T03:40:30;98512.25;;;17.04;78.30
13312;BME280;34033;48.672;9.376;2023-07-31T03:42:56;98510.81;;;17.95;73.17
13312;BME280;34033;48.672;9.376;2023-07-31T03:45:21;98501.56;;;18.63;69.04
13312;BME280;34033;48.672;9.376;2023-07-31T03:47:46;98502.34;;;19.08;66.33
13312;BME280;34033;48.672;9.376;2023-07-31T03:50:12;98508.84;;;19.38;63.96
13312;BME280;34033;48.672;9.376;2023-07-31T03:52:37;98516.31;;;19.61;62.79
13312;BME280;34033;48.672;9.376;2023-07-31T03:55:03;98510.56;;;19.77;61.38
13312;BME280;34033;48.672;9.376;2023-07-31T03:57:28;98527.63;;;19.89;60.61
13312;BME280;34033;48.672;9.376;2023-07-31T03:59:53;98522.06;;;19.98;59.98
13312;BME280;34033;48.672;9.376;2023-07-31T04:02:19;98510.13;;;19.91;59.22
13312;BME280;34033;48.672;9.376;2023-07-31T04:04:44;98523.69;;;19.58;59.85
13312;BME280;34033;48.672;9.376;2023-07-31T04:07:09;98519.28;;;19.12;61.21
13312;BME280;34033;48.672;9.376;2023-07-31T04:09:34;98515.78;;;18.59;62.86
13312;BME280;34033;48.672;9.376;2023-07-31T04:12:00;98515.47;;;18.21;63.77
13312;BME280;34033;48.672;9.376;2023-07-31T04:14:25;98521.44;;;17.91;65.59
13312;BME280;34033;48.672;9.376;2023-07-31T04:16:50;98529.63;;;17.66;66.69
13312;BME280;34033;48.672;9.376;2023-07-31T04:19:16;98530.03;;;17.44;67.75
13312;BME280;34033;48.672;9.376;2023-07-31T04:21:42;98522.84;;;17.20;68.64
13312;BME280;34033;48.672;9.376;2023-07-31T04:24:07;98527.75;;;16.96;69.85
13312;BME280;34033;48.672;9.376;2023-07-31T04:26:33;98525.53;;;16.84;69.84
13312;BME280;34033;48.672;9.376;2023-07-31T04:28:58;98511.91;;;16.79;70.11
13312;BME280;34033;48.672;9.376;2023-07-31T04:31:23;98517.66;;;16.76;70.96
13312;BME280;34033;48.672;9.376;2023-07-31T04:33:49;98505.06;;;16.80;71.12
13312;BME280;34033;48.672;9.376;2023-07-31T04:36:14;98511.00;;;16.86;70.77
13312;BME280;34033;48.672;9.376;2023-07-31T04:38:39;98504.97;;;16.84;70.99
13312;BME280;34033;48.672;9.376;2023-07-31T04:41:06;98494.91;;;16.83;71.04
13312;BME280;34033;48.672;9.376;2023-07-31T04:43:31;98500.56;;;16.83;71.12
13312;BME280;34033;48.672;9.376;2023-07-31T04:45:57;98494.47;;;16.84;70.82
13312;BME280;34033;48.672;9.376;2023-07-31T04:48:23;98492.88;;;16.83;71.14
13312;BME280;34033;48.672;9.376;2023-07-31T04:50:48;98499.03;;;16.78;71.20
13312;BME280;34033;48.672;9.376;2023-07-31T04:53:14;98497.38;;;16.81;71.13
13312;BME280;34033;48.672;9.376;2023-07-31T04:55:39;98499.72;;;16.86;71.15
13312;BME280;34033;48.672;9.376;2023-07-31T04:58:05;98506.47;;;16.92;71.25
13312;BME280;34033;48.672;9.376;2023-07-31T05:00:30;98507.91;;;16.53;72.49
13312;BME280;34033;48.672;9.376;2023-07-31T05:02:55;98509.72;;;16.67;72.51
13312;BME280;34033;48.672;9.376;2023-07-31T05:05:21;98504.78;;;16.71;72.02
13312;BME280;34033;48.672;9.376;2023-07-31T05:07:46;98502.66;;;16.79;72.20
13312;BME280;34033;48.672;9.376;2023-07-31T05:10:11;98496.59;;;16.80;72.01
13312;BME280;34033;48.672;9.376;2023-07-31T05:12:37;98487.66;;;16.82;71.65
13312;BME280;34033;48.672;9.376;2023-07-31T05:15:03;98498.91;;;16.85;71.36
13312;BME280;34033;48.672;9.376;2023-07-31T05:17:28;98497.59;;;16.90;71.54
13312;BME280;34033;48.672;9.376;2023-07-31T05:19:53;98497.59;;;16.90;71.40
13312;BME280;34033;48.672;9.376;2023-07-31T05:22:19;98504.19;;;16.83;71.62
13312;BME280;34033;48.672;9.376;2023-07-31T05:24:44;98501.78;;;16.82;72.18
13312;BME280;34033;48.672;9.376;2023-07-31T05:27:09;98500.63;;;16.79;72.04
13312;BME280;34033;48.672;9.376;2023-07-31T05:29:35;98490.47;;;16.82;72.50
13312;BME280;34033;48.672;9.376;2023-07-31T05:32:01;98494.25;;;16.75;72.79
13312;BME280;34033;48.672;9.376;2023-07-31T05:34:26;98491.78;;;16.77;72.94
13312;BME280;34033;48.672;9.376;2023-07-31T05:36:51;98496.94;;;16.82;73.05
13312;BME280;34033;48.672;9.376;2023-07-31T05:39:17;98501.44;;;16.80;72.31
13312;BME280;34033;48.672;9.376;2023-07-31T05:41:44;98498.09;;;16.85;72.31
13312;BME280;34033;48.672;9.376;2023-07-31T05:44:10;98504.59;;;16.82;72.07
13312;BME280;34033;48.672;9.376;2023-07-31T05:46:35;98503.38;;;16.83;72.27
13312;BME280;34033;48.672;9.376;2023-07-31T05:49:00;98495.28;;;16.85;72.87
13312;BME280;34033;48.672;9.376;2023-07-31T05:51:26;98500.34;;;16.93;72.46
13312;BME280;34033;48.672;9.376;2023-07-31T05:53:52;98501.91;;;16.98;71.64
13312;BME280;34033;48.672;9.376;2023-07-31T05:56:18;98494.97;;;17.02;71.75
13312;BME280;34033;48.672;9.376;2023-07-31T05:58:43;98498.09;;;17.08;71.53
13312;BME280;34033;48.672;9.376;2023-07-31T06:01:09;98497.50;;;17.17;71.68
13312;BME280;34033;48.672;9.376;2023-07-31T06:03:34;98486.00;;;17.27;71.46
13312;BME280;34033;48.672;9.376;2023-07-31T06:05:59;98486.50;;;17.42;70.80
13312;BME280;34033;48.672;9.376;2023-07-31T06:08:25;98488.03;;;17.46;70.78
13312;BME280;34033;48.672;9.376;2023-07-31T06:10:50;98488.22;;;17.56;70.12
13312;BME280;34033;48.672;9.376;2023-07-31T06:13:16;98483.31;;;17.60;70.29
13312;BME280;34033;48.672;9.376;2023-07-31T06:15:41;98474.69;;;17.67;70.19
13312;BME280;34033;48.672;9.376;2023-07-31T06:18:06;98483.38;;;17.76;69.52
13312;BME280;34033;48.672;9.376;2023-07-31T06:20:36;98483.88;;;17.90;69.15
13312;BME280;34033;48.672;9.376;2023-07-31T06:23:01;98480.41;;;17.99;68.68
13312;BME280;34033;48.672;9.376;2023-07-31T06:25:27;98480.97;;;18.10;68.22
13312;BME280;34033;48.672;9.376;2023-07-31T06:27:52;98478.94;;;18.27;67.92
13312;BME280;34033;48.672;9.376;2023-07-31T06:30:18;98478.53;;;18.28;68.04
13312;BME280;34033;48.672;9.376;2023-07-31T06:32:43;98474.00;;;18.47;67.81
13312;BME280;34033;48.672;9.376;2023-07-31T06:35:08;98479.88;;;18.56;66.54
13312;BME280;34033;48.672;9.376;2023-07-31T06:37:34;98472.72;;;18.68;66.80
13312;BME280;34033;48.672;9.376;2023-07-31T06:39:59;98476.38;;;18.81;65.80
13312;BME280;34033;48.672;9.376;2023-07-31T06:42:24;98475.66;;;18.93;65.43
13312;BME280;34033;48.672;9.376;2023-07-31T06:44:50;98486.41;;;19.14;64.96
13312;BME280;34033;48.672;9.376;2023-07-31T06:47:15;98488.50;;;19.27;64.83
13312;BME280;34033;48.672;9.376;2023-07-31T06:49:41;98484.50;;;19.40;64.33
13312;BME280;34033;48.672;9.376;2023-07-31T06:52:06;98482.97;;;19.36;63.81
13312;BME280;34033;48.672;9.376;2023-07-31T06:54:32;98475.50;;;19.42;63.89
13312;BME280;34033;48.672;9.376;2023-07-31T06:56:57;98476.75;;;19.41;63.97
13312;BME280;34033;48.672;9.376;2023-07-31T06:59:22;98477.06;;;19.30;62.52
13312;BME280;34033;48.672;9.376;2023-07-31T07:01:48;98468.00;;;19.35;62.59
13312;BME280;34033;48.672;9.376;2023-07-31T07:04:13;98467.00;;;19.42;62.77
13312;BME280;34033;48.672;9.376;2023-07-31T07:06:39;98465.94;;;19.52;62.53
13312;BME280;34033;48.672;9.376;2023-07-31T07:09:04;98472.94;;;19.47;61.68
13312;BME280;34033;48.672;9.376;2023-07-31T07:11:30;98485.25;;;19.57;60.34
13312;BME280;34033;48.672;9.376;2023-07-31T07:13:55;98471.94;;;19.54;59.99
13312;BME280;34033;48.672;9.376;2023-07-31T07:16:20;98479.94;;;19.43;61.06
13312;BME280;34033;48.672;9.376;2023-07-31T07:18:46;98479.34;;;19.51;60.52
13312;BME280;34033;48.672;9.376;2023-07-31T07:21:11;98480.72;;;19.72;60.78
13312;BME280;34033;48.672;9.376;2023-07-31T07:23:41;98477.38;;;19.90;60.26
13312;BME280;34033;48.672;9.376;2023-07-31T07:26:06;98475.31;;;20.03;59.88
13312;BME280;34033;48.672;9.376;2023-07-31T07:28:31;98470.53;;;20.13;59.29
13312;BME280;34033;48.672;9.376;2023-07-31T07:30:57;98468.72;;;20.19;59.52
13312;BME280;34033;48.672;9.376;2023-07-31T07:33:23;98465.09;;;20.31;58.85
13312;BME280;34033;48.672;9.376;2023-07-31T07:35:48;98462.38;;;20.40;58.68
13312;BME280;34033;48.672;9.376;2023-07-31T07:38:14;98467.94;;;20.56;58.55
13312;BME280;34033;48.672;9.376;2023-07-31T07:40:40;98473.63;;;20.56;57.56
13312;BME280;34033;48.672;9.376;2023-07-31T07:43:06;98461.56;;;20.65;57.93
13312;BME280;34033;48.672;9.376;2023-07-31T07:45:31;98457.56;;;20.62;57.91
13312;BME280;34033;48.672;9.376;2023-07-31T07:47:56;98451.56;;;20.60;58.00
13312;BME280;34033;48.672;9.376;2023-07-31T07:50:23;98451.88;;;20.62;57.67
13312;BME280;34033;48.672;9.376;2023-07-31T07:52:48;98457.63;;;20.37;57.30
13312;BME280;34033;48.672;9.376;2023-07-31T07:55:13;98449.47;;;20.39;56.86
13312;BME280;34033;48.672;9.376;2023-07-31T07:57:39;98454.78;;;20.37;57.11
13312;BME280;34033;48.672;9.376;2023-07-31T08:00:05;98450.09;;;20.56;56.84
13312;BME280;34033;48.672;9.376;2023-07-31T08:02:30;98447.56;;;20.70;56.64
13312;BME280;34033;48.672;9.376;2023-07-31T08:04:56;98451.03;;;20.87;56.01
13312;BME280;34033;48.672;9.376;2023-07-31T08:07:21;98451.19;;;20.84;55.11
13312;BME280;34033;48.672;9.376;2023-07-31T08:09:46;98439.44;;;20.94;55.55
13312;BME280;34033;48.672;9.376;2023-07-31T08:12:12;98439.84;;;21.05;54.74
13312;BME280;34033;48.672;9.376;2023-07-31T08:14:37;98449.47;;;21.20;54.74
13312;BME280;34033;48.672;9.376;2023-07-31T08:17:03;98450.06;;;21.37;54.45
13312;BME280;34033;48.672;9.376;2023-07-31T08:19:28;98446.88;;;21.35;53.01
13312;BME280;34033;48.672;9.376;2023-07-31T08:21:53;98438.34;;;21.35;53.48
13312;BME280;34033;48.672;9.376;2023-07-31T08:24:19;98431.94;;;21.44;53.03
13312;BME280;34033;48.672;9.376;2023-07-31T08:26:44;98433.66;;;21.41;52.08
13312;BME280;34033;48.672;9.376;2023-07-31T08:29:09;98424.97;;;21.45;52.11
13312;BME280;34033;48.672;9.376;2023-07-31T08:31:35;98425.78;;;21.45;52.22
13312;BME280;34033;48.672;9.376;2023-07-31T08:34:00;98426.38;;;21.40;51.45
13312;BME280;34033;48.672;9.376;2023-07-31T08:36:26;98424.66;;;21.43;50.61
13312;BME280;34033;48.672;9.376;2023-07-31T08:38:51;98424.78;;;21.39;50.87
13312;BME280;34033;48.672;9.376;2023-07-31T08:41:17;98419.97;;;21.49;51.82
13312;BME280;34033;48.672;9.376;2023-07-31T08:43:44;98417.63;;;21.56;50.94
13312;BME280;34033;48.672;9.376;2023-07-31T08:46:10;98413.25;;;21.64;50.83
13312;BME280;34033;48.672;9.376;2023-07-31T08:48:37;98407.41;;;21.68;50.44
13312;BME280;34033;48.672;9.376;2023-07-31T08:51:03;98413.19;;;21.77;50.67
13312;BME280;34033;48.672;9.376;2023-07-31T08:53:28;98411.06;;;21.69;49.80
13312;BME280;34033;48.672;9.376;2023-07-31T08:55:54;98392.47;;;21.77;49.36
13312;BME280;34033;48.672;9.376;2023-07-31T08:58:21;98390.44;;;21.86;49.92
13312;BME280;34033;48.672;9.376;2023-07-31T09:00:49;98394.16;;;21.96;48.63
13312;BME280;34033;48.672;9.376;2023-07-31T09:03:18;98393.09;;;22.12;49.64
13312;BME280;34033;48.672;9.376;2023-07-31T09:05:46;98393.00;;;22.33;49.16
13312;BME280;34033;48.672;9.376;2023-07-31T09:08:13;98393.03;;;22.42;49.23
13312;BME280;34033;48.672;9.376;2023-07-31T09:10:42;98402.88;;;22.69;48.30
13312;BME280;34033;48.672;9.376;2023-07-31T09:13:08;98384.50;;;22.52;46.28
13312;BME280;34033;48.672;9.376;2023-07-31T09:15:34;98378.81;;;22.70;46.45
13312;BME280;34033;48.672;9.376;2023-07-31T09:18:02;98376.78;;;22.79;46.75
13312;BME280;34033;48.672;9.376;2023-07-31T09:20:27;98382.19;;;22.86;45.63
13312;BME280;34033;48.672;9.376;2023-07-31T09:22:54;98381.38;;;22.95;45.64
13312;BME280;34033;48.672;9.376;2023-07-31T09:25:24;98375.22;;;22.97;45.28
13312;BME280;34033;48.672;9.376;2023-07-31T09:27:54;98378.22;;;23.02;45.67
13312;BME280;34033;48.672;9.376;2023-07-31T09:30:20;98385.66;;;23.00;45.32
13312;BME280;34033;48.672;9.376;2023-07-31T09:32:47;98388.03;;;23.01;45.25
13312;BME280;34033;48.672;9.376;2023-07-31T09:35:27;98387.88;;;23.05;45.30
13312;BME280;34033;48.672;9.376;2023-07-31T09:37:57;98381.22;;;22.80;44.96
13312;BME280;34033;48.672;9.376;2023-07-31T09:40:34;98373.47;;;22.99;45.68
13312;BME280;34033;48.672;9.376;2023-07-31T09:43:01;98375.84;;;23.19;45.41
13312;BME280;34033;48.672;9.376;2023-07-31T09:45:28;98378.50;;;23.32;45.08
13312;BME280;34033;48.672;9.376;2023-07-31T09:47:54;98367.41;;;23.34;44.31
13312;BME280;34033;48.672;9.376;2023-07-31T09:50:21;98371.38;;;23.36;44.46
13312;BME280;34033;48.672;9.376;2023-07-31T09:52:47;98367.75;;;23.17;45.36
13312;BME280;34033;48.672;9.376;2023-07-31T09:55:13;98346.84;;;23.20;45.43
13312;BME280;34033;48.672;9.376;2023-07-31T09:57:44;98352.38;;;23.24;44.90
13312;BME280;34033;48.672;9.376;2023-07-31T10:00:14;98346.53;;;23.18;45.28
13312;BME280;34033;48.672;9.376;2023-07-31T10:02:40;98336.38;;;23.17;45.51
13312;BME280;34033;48.672;9.376;2023-07-31T10:05:07;98338.28;;;23.20;45.26
13312;BME280;34033;48.672;9.376;2023-07-31T10:07:43;98334.97;;;22.95;45.14
13312;BME280;34033;48.672;9.376;2023-07-31T10:10:11;98336.41;;;22.99;45.57
13312;BME280;34033;48.672;9.376;2023-07-31T10:12:37;98341.19;;;22.93;46.18
13312;BME280;34033;48.672;9.376;2023-07-31T10:15:03;98322.16;;;22.99;45.66
13312;BME280;34033;48.672;9.376;2023-07-31T10:17:30;98322.16;;;23.08;45.88
13312;BME280;34033;48.672;9.376;2023-07-31T10:19:59;98313.56;;;23.26;45.62
13312;BME280;34033;48.672;9.376;2023-07-31T10:22:28;98312.13;;;23.31;45.25
13312;BME280;34033;48.672;9.376;2023-07-31T10:24:54;98303.56;;;23.31;45.14
13312;BME280;34033;48.672;9.376;2023-07-31T10:27:22;98296.44;;;23.26;45.58
13312;BME280;34033;48.672;9.376;2023-07-31T10:29:48;98306.28;;;23.25;45.49
13312;BME280;34033;48.672;9.376;2023-07-31T10:32:15;98298.00;;;23.27;45.77
13312;BME280;34033;48.672;9.376;2023-07-31T10:34:42;98298.94;;;23.43;45.96
13312;BME280;34033;48.672;9.376;2023-07-31T10:37:23;98295.44;;;23.48;45.21
13312;BME280;34033;48.672;9.376;2023-07-31T10:44:57;98287.06;;;23.35;43.89
13312;BME280;34033;48.672;9.376;2023-07-31T10:47:23;98279.56;;;23.56;44.57
13312;BME280;34033;48.672;9.376;2023-07-31T10:49:48;98272.66;;;23.72;44.13
13312;BME280;34033;48.672;9.376;2023-07-31T10:52:19;98260.94;;;24.02;43.52
13312;BME280;34033;48.672;9.376;2023-07-31T10:54:48;98262.13;;;24.10;43.70
13312;BME280;34033;48.672;9.376;2023-07-31T10:57:22;98269.50;;;24.26;42.97
13312;BME280;34033;48.672;9.376;2023-07-31T10:59:48;98273.47;;;24.29;43.50
13312;BME280;34033;48.672;9.376;2023-07-31T11:02:26;98285.00;;;24.34;43.16
13312;BME280;34033;48.672;9.376;2023-07-31T11:05:09;98260.81;;;24.21;42.92
13312;BME280;34033;48.672;9.376;2023-07-31T11:07:50;98266.50;;;24.44;43.10
13312;BME280;34033;48.672;9.376;2023-07-31T11:10:18;98259.84;;;24.47;42.02
13312;BME280;34033;48.672;9.376;2023-07-31T11:12:45;98242.41;;;24.60;41.56
13312;BME280;34033;48.672;9.376;2023-07-31T11:15:12;98247.56;;;24.85;42.08
13312;BME280;34033;48.672;9.376;2023-07-31T11:17:40;98241.88;;;25.00;42.15
13312;BME280;34033;48.672;9.376;2023-07-31T11:20:06;98248.56;;;25.26;40.98
13312;BME280;34033;48.672;9.376;2023-07-31T11:22:35;98244.53;;;25.18;41.66
13312;BME280;34033;48.672;9.376;2023-07-31T11:25:03;98244.00;;;25.49;41.57
13312;BME280;34033;48.672;9.376;2023-07-31T11:27:29;98237.31;;;25.52;40.93
13312;BME280;34033;48.672;9.376;2023-07-31T11:30:00;98235.72;;;25.51;41.24
13312;BME280;34033;48.672;9.376;2023-07-31T11:32:26;98248.50;;;25.06;41.68
13312;BME280;34033;48.672;9.376;2023-07-31T11:34:53;98245.19;;;24.84;41.38
13312;BME280;34033;48.672;9.376;2023-07-31T11:37:18;98238.94;;;24.56;41.47
13312;BME280;34033;48.672;9.376;2023-07-31T11:39:43;98246.63;;;24.65;42.25
13312;BME280;34033;48.672;9.376;2023-07-31T11:42:23;98253.28;;;24.08;42.69
13312;BME280;34033;48.672;9.376;2023-07-31T11:44:48;98250.81;;;24.25;42.59
13312;BME280;34033;48.672;9.376;2023-07-31T11:47:13;98239.19;;;24.29;43.14
13312;BME280;34033;48.672;9.376;2023-07-31T11:49:40;98230.25;;;24.36;42.78
13312;BME280;34033;48.672;9.376;2023-07-31T11:52:05;98227.28;;;24.45;43.06
13312;BME280;34033;48.672;9.376;2023-07-31T11:54:31;98237.69;;;24.57;43.08
13312;BME280;34033;48.672;9.376;2023-07-31T11:56:56;98237.97;;;24.21;44.01
13312;BME280;34033;48.672;9.376;2023-07-31T11:59:22;98229.75;;;24.14;43.41
13312;BME280;34033;48.672;9.376;2023-07-31T12:01:48;98225.00;;;24.10;43.73
13312;BME280;34033;48.672;9.376;2023-07-31T12:04:18;98225.78;;;23.87;44.11
13312;BME280;34033;48.672;9.376;2023-07-31T12:06:44;98222.59;;;23.71;44.13
13312;BME280;34033;48.672;9.376;2023-07-31T12:09:10;98219.88;;;23.76;44.73
13312;BME280;34033;48.672;9.376;2023-07-31T12:11:46;98205.63;;;23.67;45.01
13312;BME280;34033;48.672;9.376;2023-07-31T12:14:24;98205.41;;;23.80;45.39
13312;BME280;34033;48.672;9.376;2023-07-31T12:17:00;98191.25;;;23.85;44.66
13312;BME280;34033;48.672;9.376;2023-07-31T12:19:26;98195.81;;;23.92;44.86
13312;BME280;34033;48.672;9.376;2023-07-31T12:21:58;98187.47;;;23.79;44.88
13312;BME280;34033;48.672;9.376;2023-07-31T12:24:26;98185.78;;;23.73;45.35
13312;BME280;34033;48.672;9.376;2023-07-31T12:26:51;98180.75;;;23.67;45.92
13312;BME280;34033;48.672;9.376;2023-07-31T12:29:17;98187.22;;;23.68;45.84
13312;BME280;34033;48.672;9.376;2023-07-31T12:31:43;98187.56;;;23.70;46.04
13312;BME280;34033;48.672;9.376;2023-07-31T12:34:18;98179.50;;;23.83;45.98
13312;BME280;34033;48.672;9.376;2023-07-31T12:36:46;98180.75;;;23.91;45.46
13312;BME280;34033;48.672;9.376;2023-07-31T12:39:12;98168.56;;;24.05;45.46
13312;BME280;34033;48.672;9.376;2023-07-31T12:41:37;98179.31;;;24.10;44.43
13312;BME280;34033;48.672;9.376;2023-07-31T12:44:02;98166.50;;;24.06;45.18
13312;BME280;34033;48.672;9.376;2023-07-31T12:46:28;98174.59;;;23.84;44.69
13312;BME280;34033;48.672;9.376;2023-07-31T12:48:54;98152.56;;;23.84;45.54
13312;BME280;34033;48.672;9.376;2023-07-31T12:51:19;98154.22;;;23.76;45.30
13312;BME280;34033;48.672;9.376;2023-07-31T12:53:46;98161.25;;;23.66;45.83
13312;BME280;34033;48.672;9.376;2023-07-31T12:56:11;98146.00;;;23.69;46.20
13312;BME280;34033;48.672;9.376;2023-07-31T12:58:36;98153.91;;;23.74;46.51
13312;BME280;34033;48.672;9.376;2023-07-31T13:01:02;98147.22;;;23.77;46.77
13312;BME280;34033;48.672;9.376;2023-07-31T13:03:27;98127.97;;;23.63;46.13
13312;BME280;34033;48.672;9.376;2023-07-31T13:05:54;98127.94;;;23.39;46.42
13312;BME280;34033;48.672;9.376;2023-07-31T13:08:20;98131.91;;;23.42;45.92
13312;BME280;34033;48.672;9.376;2023-07-31T13:10:45;98124.28;;;23.48;46.33